Gays Mills, Wisconsin
Current Conditions -  °F | °C
As of 6:53 PM on Tuesday 21 Oct 2014 (Local Time) from KOVS Reporting Station
Clear Clear  
Wind Chill: 47°   Ceiling: Unl
Heat Index: 49°   Visibility: 10mi
Dew Point: 36°   Wind: 6mph
Humidity: 61%   Direction: 100°E
Pressure: 30.23"   Gusts: NA
Location:  43.32°N, 90.84°W
Report Text: KOVS 212353Z AUTO 10005KT 10SM CLR 09/02 A3023 RMK AO2 SLP241 T00940022 10150 20094 51010
Loading
Personal Weather Stations






























Interactive Weather Map
Tropical Storm Tracking
New forecast layout! Learn more

10-Day Weather Forecast

Advertisements
Track Severe Weather on mobile